createdAt,value
2023-04-25T00:00:38.476Z,998.29
2023-04-25T00:01:38.448Z,998.28
2023-04-25T00:02:43.779Z,998.27
2023-04-25T00:03:38.669Z,998.24
2023-04-25T00:04:38.768Z,998.23
2023-04-25T00:05:38.444Z,998.25
2023-04-25T00:06:38.420Z,998.28
2023-04-25T00:07:38.397Z,998.24
2023-04-25T00:08:38.374Z,998.25
2023-04-25T00:09:38.367Z,998.18
2023-04-25T00:10:38.353Z,998.23
2023-04-25T00:11:38.349Z,998.28
2023-04-25T00:12:38.341Z,998.29
2023-04-25T00:13:43.338Z,998.27
2023-04-25T00:14:38.309Z,998.25
2023-04-25T00:15:38.298Z,998.25
2023-04-25T00:16:38.405Z,998.23
2023-04-25T00:17:38.320Z,998.31
2023-04-25T00:18:38.276Z,998.29
2023-04-25T00:19:38.260Z,998.28
2023-04-25T00:20:38.249Z,998.24
2023-04-25T00:21:38.222Z,998.23
2023-04-25T00:22:38.214Z,998.26
2023-04-25T00:23:38.218Z,998.20
2023-04-25T00:24:43.208Z,998.22
2023-04-25T00:25:38.186Z,998.19
2023-04-25T00:26:38.170Z,998.20
2023-04-25T00:27:38.154Z,998.24
2023-04-25T00:28:38.162Z,998.09
2023-04-25T00:29:38.149Z,998.14
2023-04-25T00:30:38.131Z,998.17
2023-04-25T00:31:38.151Z,998.19
2023-04-25T00:32:38.139Z,998.18
2023-04-25T00:33:38.094Z,998.16
2023-04-25T00:34:38.079Z,998.20
2023-04-25T00:35:43.211Z,998.16
2023-04-25T00:36:38.059Z,998.18
2023-04-25T00:37:38.065Z,998.07
2023-04-25T00:38:38.027Z,998.05
2023-04-25T00:39:38.020Z,998.06
2023-04-25T00:40:38.012Z,998.08
2023-04-25T00:41:38.017Z,998.11
2023-04-25T00:42:37.985Z,998.12
2023-04-25T00:43:37.978Z,998.12
2023-04-25T00:44:37.980Z,998.17
2023-04-25T00:45:37.954Z,998.13
2023-04-25T00:46:43.009Z,998.13
2023-04-25T00:47:37.963Z,998.14
2023-04-25T00:48:37.914Z,998.05
2023-04-25T00:49:37.910Z,998.06
2023-04-25T00:50:37.890Z,998.00
2023-04-25T00:51:37.891Z,998.07
2023-04-25T00:52:37.876Z,998.02
2023-04-25T00:53:37.867Z,998.05
2023-04-25T00:54:37.846Z,998.02
2023-04-25T00:55:37.838Z,998.09
2023-04-25T00:56:37.835Z,997.98
2023-04-25T00:57:42.850Z,998.05
2023-04-25T00:58:37.829Z,997.97
2023-04-25T00:59:37.807Z,998.04
2023-04-25T01:00:37.846Z,997.97
2023-04-25T01:01:37.820Z,998.02
2023-04-25T01:02:37.843Z,998.01
2023-04-25T01:03:37.870Z,997.99
2023-04-25T01:04:37.733Z,997.98
2023-04-25T01:05:37.743Z,997.97
2023-04-25T01:06:37.721Z,998.03
2023-04-25T01:07:37.701Z,998.01
2023-04-25T01:08:42.722Z,997.96
2023-04-25T01:09:37.681Z,997.97
2023-04-25T01:10:37.678Z,997.95
2023-04-25T01:11:37.673Z,997.96
2023-04-25T01:12:37.654Z,997.96
2023-04-25T01:13:37.643Z,997.96
2023-04-25T01:14:37.624Z,997.95
2023-04-25T01:15:37.616Z,997.95
2023-04-25T01:16:37.684Z,997.92
2023-04-25T01:17:37.674Z,997.90
2023-04-25T01:18:37.578Z,997.94
2023-04-25T01:19:42.599Z,997.96
2023-04-25T01:20:37.569Z,997.89
2023-04-25T01:21:37.541Z,997.95
2023-04-25T01:22:37.533Z,997.89
2023-04-25T01:23:37.549Z,997.80
2023-04-25T01:24:37.517Z,997.89
2023-04-25T01:25:37.500Z,997.89
2023-04-25T01:26:37.530Z,997.84
2023-04-25T01:27:37.475Z,997.89
2023-04-25T01:28:37.471Z,997.83
2023-04-25T01:29:37.488Z,997.83
2023-04-25T01:30:42.479Z,997.88
2023-04-25T01:31:37.475Z,997.80
2023-04-25T01:32:37.468Z,997.85
2023-04-25T01:33:37.409Z,997.79
2023-04-25T01:34:37.397Z,997.87
2023-04-25T01:35:37.403Z,997.80
2023-04-25T01:36:37.380Z,997.86
2023-04-25T01:37:37.362Z,997.93
2023-04-25T01:38:37.349Z,997.87
2023-04-25T01:39:37.348Z,997.88
2023-04-25T01:40:37.344Z,997.88
2023-04-25T01:41:42.364Z,997.88
2023-04-25T01:42:37.304Z,997.89
2023-04-25T01:43:37.294Z,997.93
2023-04-25T01:44:37.282Z,997.91
2023-04-25T01:45:37.275Z,997.88
2023-04-25T01:46:37.330Z,997.97
2023-04-25T01:47:37.291Z,997.98
2023-04-25T01:48:37.362Z,997.92
2023-04-25T01:49:37.235Z,997.98
2023-04-25T01:50:37.226Z,997.95
2023-04-25T01:51:37.207Z,998.04
2023-04-25T01:52:42.214Z,997.95
2023-04-25T01:53:37.205Z,997.99
2023-04-25T01:54:37.169Z,997.97
2023-04-25T01:55:37.169Z,998.00
2023-04-25T01:56:37.162Z,998.04
2023-04-25T01:57:37.141Z,998.03
2023-04-25T01:58:37.123Z,997.99
2023-04-25T01:59:37.136Z,998.05
2023-04-25T02:00:37.129Z,998.06
2023-04-25T02:01:37.166Z,998.05
2023-04-25T02:02:37.156Z,998.02
2023-04-25T02:03:42.319Z,998.07
2023-04-25T02:04:37.179Z,998.00
2023-04-25T02:05:37.075Z,998.02
2023-04-25T02:06:37.052Z,998.10
2023-04-25T02:07:37.031Z,998.01
2023-04-25T02:08:37.017Z,998.01
2023-04-25T02:09:37.003Z,998.03
2023-04-25T02:10:36.989Z,998.00
2023-04-25T02:11:37.048Z,998.05
2023-04-25T02:12:36.978Z,997.98
2023-04-25T02:13:36.956Z,998.00
2023-04-25T02:14:41.968Z,997.93
2023-04-25T02:15:36.954Z,997.97
2023-04-25T02:16:37.048Z,998.00
2023-04-25T02:17:36.946Z,997.99
2023-04-25T02:18:36.907Z,998.03
2023-04-25T02:19:36.913Z,997.96
2023-04-25T02:20:36.882Z,997.94
2023-04-25T02:21:36.949Z,997.96
2023-04-25T02:22:36.863Z,997.93
2023-04-25T02:23:36.870Z,997.98
2023-04-25T02:24:36.836Z,997.99
2023-04-25T02:25:41.854Z,997.99
2023-04-25T02:26:36.825Z,998.01
2023-04-25T02:27:36.804Z,997.89
2023-04-25T02:28:36.860Z,997.96
2023-04-25T02:29:36.802Z,997.92
2023-04-25T02:30:36.782Z,997.96
2023-04-25T02:31:36.806Z,997.91
2023-04-25T02:32:36.813Z,997.91
2023-04-25T02:33:36.739Z,997.92
2023-04-25T02:34:36.721Z,997.92
2023-04-25T02:35:36.760Z,997.89
2023-04-25T02:36:41.744Z,997.95
2023-04-25T02:37:36.687Z,997.85
2023-04-25T02:38:36.675Z,997.89
2023-04-25T02:39:36.662Z,997.85
2023-04-25T02:40:36.677Z,997.86
2023-04-25T02:41:36.681Z,997.83
2023-04-25T02:42:36.632Z,997.89
2023-04-25T02:43:36.619Z,997.80
2023-04-25T02:44:36.613Z,997.77
2023-04-25T02:45:36.598Z,997.80
2023-04-25T02:46:39.384Z,997.80
2023-04-25T02:47:41.696Z,997.79
2023-04-25T02:48:36.565Z,997.73
2023-04-25T02:49:36.552Z,997.82
2023-04-25T02:50:36.565Z,997.76
2023-04-25T02:51:36.592Z,997.78
2023-04-25T02:52:36.518Z,997.82
2023-04-25T02:53:36.530Z,997.88
2023-04-25T02:54:36.493Z,997.89
2023-04-25T02:55:36.486Z,997.88
2023-04-25T02:56:36.488Z,997.89
2023-04-25T02:57:36.475Z,997.82
2023-04-25T02:58:41.468Z,997.86
2023-04-25T02:59:36.451Z,997.84
2023-04-25T03:00:36.453Z,997.84
2023-04-25T03:01:36.414Z,997.81
2023-04-25T03:02:36.486Z,997.83
2023-04-25T03:03:36.418Z,997.76
2023-04-25T03:04:36.434Z,997.75
2023-04-25T03:05:36.398Z,997.77
2023-04-25T03:06:36.365Z,997.74
2023-04-25T03:07:36.370Z,997.72
2023-04-25T03:08:36.337Z,997.78
2023-04-25T03:09:41.346Z,997.70
2023-04-25T03:10:36.307Z,997.71
2023-04-25T03:11:36.338Z,997.75
2023-04-25T03:12:36.287Z,997.71
2023-04-25T03:13:36.287Z,997.67
2023-04-25T03:14:36.269Z,997.64
2023-04-25T03:15:36.260Z,997.68
2023-04-25T03:16:36.302Z,997.68
2023-04-25T03:17:36.261Z,997.72
2023-04-25T03:18:36.218Z,997.71
2023-04-25T03:19:36.209Z,997.69
2023-04-25T03:20:41.219Z,997.71
2023-04-25T03:21:36.194Z,997.67
2023-04-25T03:22:36.192Z,997.67
2023-04-25T03:23:36.192Z,997.66
2023-04-25T03:24:36.161Z,997.66
2023-04-25T03:25:36.142Z,997.64
2023-04-25T03:26:36.139Z,997.67
2023-04-25T03:27:36.119Z,997.64
2023-04-25T03:28:36.107Z,997.70
2023-04-25T03:29:36.120Z,997.70
2023-04-25T03:30:36.088Z,997.75
2023-04-25T03:31:41.130Z,997.65
2023-04-25T03:32:36.095Z,997.72
2023-04-25T03:33:36.070Z,997.66
2023-04-25T03:34:36.039Z,997.65
2023-04-25T03:35:36.041Z,997.66
2023-04-25T03:36:36.028Z,997.61
2023-04-25T03:37:36.007Z,997.66
2023-04-25T03:38:36.026Z,997.67
2023-04-25T03:39:36.029Z,997.59
2023-04-25T03:40:35.994Z,997.62
2023-04-25T03:41:35.983Z,997.64
2023-04-25T03:42:42.156Z,997.68
2023-04-25T03:43:35.941Z,997.65
2023-04-25T03:44:35.922Z,997.67
2023-04-25T03:45:35.938Z,997.63
2023-04-25T03:46:35.911Z,997.66
2023-04-25T03:47:35.953Z,997.64
2023-04-25T03:48:35.903Z,997.73
2023-04-25T03:49:35.871Z,997.73
2023-04-25T03:50:35.864Z,997.78
2023-04-25T03:51:35.855Z,997.77
2023-04-25T03:52:35.856Z,997.77
2023-04-25T03:53:40.898Z,997.78
2023-04-25T03:54:35.813Z,997.80
2023-04-25T03:55:35.822Z,997.79
2023-04-25T03:56:35.812Z,997.82
2023-04-25T03:57:35.802Z,997.80
2023-04-25T03:58:35.780Z,997.80
2023-04-25T03:59:35.772Z,997.79
2023-04-25T04:00:35.745Z,997.78
2023-04-25T04:01:35.735Z,997.78
2023-04-25T04:02:35.941Z,997.77
2023-04-25T04:03:35.857Z,997.80
2023-04-25T04:04:41.163Z,997.82
2023-04-25T04:05:35.821Z,997.81
2023-04-25T04:06:35.678Z,997.83
2023-04-25T04:07:35.676Z,997.82
2023-04-25T04:08:35.661Z,997.83
2023-04-25T04:09:35.641Z,997.82
2023-04-25T04:10:35.629Z,997.80
2023-04-25T04:11:35.658Z,997.81
2023-04-25T04:12:35.623Z,997.77
2023-04-25T04:13:35.607Z,997.78
2023-04-25T04:14:35.590Z,997.88
2023-04-25T04:15:40.663Z,997.82
2023-04-25T04:16:35.575Z,997.85
2023-04-25T04:17:35.676Z,997.85
2023-04-25T04:18:35.542Z,997.87
2023-04-25T04:19:35.529Z,997.82
2023-04-25T04:20:35.518Z,997.86
2023-04-25T04:21:35.506Z,997.83
2023-04-25T04:22:35.506Z,997.81
2023-04-25T04:23:36.192Z,997.88
2023-04-25T04:24:35.479Z,997.90
2023-04-25T04:25:35.459Z,997.93
2023-04-25T04:26:40.494Z,997.87
2023-04-25T04:27:35.483Z,997.91
2023-04-25T04:28:35.436Z,997.89
2023-04-25T04:29:35.443Z,997.83
2023-04-25T04:30:35.405Z,997.94
2023-04-25T04:31:35.498Z,997.87
2023-04-25T04:32:35.459Z,997.92
2023-04-25T04:33:35.374Z,997.93
2023-04-25T04:34:35.378Z,997.93
2023-04-25T04:35:35.371Z,997.86
2023-04-25T04:36:35.357Z,997.95
2023-04-25T04:37:40.353Z,997.98
2023-04-25T04:38:35.312Z,997.97
2023-04-25T04:39:35.308Z,997.95
2023-04-25T04:40:35.303Z,997.99
2023-04-25T04:41:35.321Z,997.94
2023-04-25T04:42:35.290Z,997.89
2023-04-25T04:43:35.275Z,997.91
2023-04-25T04:44:35.254Z,997.94
2023-04-25T04:45:35.238Z,997.96
2023-04-25T04:46:35.310Z,997.97
2023-04-25T04:47:35.275Z,997.99
2023-04-25T04:48:40.225Z,998.00
2023-04-25T04:49:35.191Z,997.97
2023-04-25T04:50:35.185Z,997.99
2023-04-25T04:51:35.172Z,998.00
2023-04-25T04:52:35.168Z,998.09
2023-04-25T04:53:35.167Z,998.04
2023-04-25T04:54:35.142Z,998.16
2023-04-25T04:55:35.130Z,998.14
2023-04-25T04:56:35.111Z,998.15
2023-04-25T04:57:35.109Z,998.10
2023-04-25T04:58:35.111Z,998.21
2023-04-25T04:59:40.124Z,998.13
2023-04-25T05:00:35.103Z,998.14
2023-04-25T05:01:35.057Z,998.20
2023-04-25T05:02:35.260Z,998.18
2023-04-25T05:03:35.118Z,998.17
2023-04-25T05:04:35.150Z,998.23
2023-04-25T05:05:35.015Z,998.21
2023-04-25T05:06:35.004Z,998.22
2023-04-25T05:07:35.034Z,998.20
2023-04-25T05:08:34.976Z,998.19
2023-04-25T05:09:34.962Z,998.14
2023-04-25T05:10:39.982Z,998.18
2023-04-25T05:11:34.970Z,998.17
2023-04-25T05:12:36.443Z,998.24
2023-04-25T05:13:34.960Z,998.32
2023-04-25T05:14:34.965Z,998.25
2023-04-25T05:15:34.897Z,998.21
2023-04-25T05:16:34.967Z,998.24
2023-04-25T05:17:34.965Z,998.22
2023-04-25T05:18:34.944Z,998.22
2023-04-25T05:19:34.888Z,998.22
2023-04-25T05:20:34.885Z,998.21
2023-04-25T05:21:39.866Z,998.24
2023-04-25T05:22:34.842Z,998.22
2023-04-25T05:23:34.803Z,998.17
2023-04-25T05:24:34.808Z,998.18
2023-04-25T05:25:34.798Z,998.18
2023-04-25T05:26:34.777Z,998.22
2023-04-25T05:27:34.768Z,998.28
2023-04-25T05:28:34.769Z,998.31
2023-04-25T05:29:34.748Z,998.24
2023-04-25T05:30:34.748Z,998.21
2023-04-25T05:31:34.729Z,998.17
2023-04-25T05:32:39.745Z,998.15
2023-04-25T05:33:34.692Z,998.23
2023-04-25T05:34:34.700Z,998.22
2023-04-25T05:35:34.718Z,998.25
2023-04-25T05:36:34.674Z,998.26
2023-04-25T05:37:34.658Z,998.29
2023-04-25T05:38:35.214Z,998.30
2023-04-25T05:39:34.628Z,998.34
2023-04-25T05:40:34.627Z,998.32
2023-04-25T05:41:34.597Z,998.29
2023-04-25T05:42:34.597Z,998.27
2023-04-25T05:43:39.599Z,998.29
2023-04-25T05:44:34.570Z,998.30
2023-04-25T05:45:34.572Z,998.26
2023-04-25T05:46:34.679Z,998.28
2023-04-25T05:47:34.590Z,998.31
2023-04-25T05:48:34.531Z,998.27
2023-04-25T05:49:34.504Z,998.32
2023-04-25T05:50:34.494Z,998.30
2023-04-25T05:51:34.488Z,998.31
2023-04-25T05:52:34.487Z,998.33
2023-04-25T05:53:34.459Z,998.32
2023-04-25T05:54:39.470Z,998.32
2023-04-25T05:55:34.436Z,998.35
2023-04-25T05:56:34.424Z,998.38
2023-04-25T05:57:34.423Z,998.38
2023-04-25T05:58:34.416Z,998.36
2023-04-25T05:59:34.390Z,998.39
2023-04-25T06:00:34.378Z,998.41
2023-04-25T06:01:34.370Z,998.46
2023-04-25T06:02:34.477Z,998.42
2023-04-25T06:03:34.544Z,998.47
2023-04-25T06:04:34.641Z,998.49
2023-04-25T06:05:39.427Z,998.46
2023-04-25T06:06:34.318Z,998.49
2023-04-25T06:07:34.305Z,998.43
2023-04-25T06:08:34.308Z,998.48
2023-04-25T06:09:34.287Z,998.42
2023-04-25T06:10:34.283Z,998.44
2023-04-25T06:11:34.254Z,998.39
2023-04-25T06:12:34.253Z,998.48
2023-04-25T06:13:34.238Z,998.51
2023-04-25T06:14:34.248Z,998.50
2023-04-25T06:15:34.207Z,998.45
2023-04-25T06:16:39.240Z,998.48
2023-04-25T06:17:34.217Z,998.48
2023-04-25T06:18:34.251Z,998.48
2023-04-25T06:19:34.164Z,998.48
2023-04-25T06:20:34.158Z,998.52
2023-04-25T06:21:34.148Z,998.49
2023-04-25T06:22:34.147Z,998.48
2023-04-25T06:23:34.125Z,998.50
2023-04-25T06:24:34.127Z,998.49
2023-04-25T06:25:34.101Z,998.55
2023-04-25T06:26:34.081Z,998.59
2023-04-25T06:27:39.094Z,998.58
2023-04-25T06:28:34.094Z,998.56
2023-04-25T06:29:34.058Z,998.56
2023-04-25T06:30:34.044Z,998.54
2023-04-25T06:31:34.068Z,998.54
2023-04-25T06:32:34.043Z,998.53
2023-04-25T06:33:34.013Z,998.56
2023-04-25T06:34:34.026Z,998.60
2023-04-25T06:35:33.984Z,998.62
2023-04-25T06:36:33.969Z,998.55
2023-04-25T06:37:33.963Z,998.58
2023-04-25T06:38:38.981Z,998.66
2023-04-25T06:39:33.934Z,998.65
2023-04-25T06:40:33.948Z,998.61
2023-04-25T06:41:33.925Z,998.67
2023-04-25T06:42:33.906Z,998.71
2023-04-25T06:43:33.975Z,998.67
2023-04-25T06:44:33.884Z,998.73
2023-04-25T06:45:33.879Z,998.74
2023-04-25T06:46:33.938Z,998.68
2023-04-25T06:47:33.888Z,998.67
2023-04-25T06:48:33.843Z,998.72
2023-04-25T06:49:38.875Z,998.69
2023-04-25T06:50:33.817Z,998.68
2023-04-25T06:51:33.828Z,998.71
2023-04-25T06:52:33.794Z,998.74
2023-04-25T06:53:33.790Z,998.75
2023-04-25T06:54:33.768Z,998.76
2023-04-25T06:55:33.755Z,998.78
2023-04-25T06:56:33.761Z,998.81
2023-04-25T06:57:33.753Z,998.76
2023-04-25T06:58:33.730Z,998.81
2023-04-25T06:59:33.719Z,998.87
2023-04-25T07:00:38.757Z,998.89
2023-04-25T07:01:33.692Z,998.89
2023-04-25T07:02:33.797Z,998.92
2023-04-25T07:03:33.757Z,998.99
2023-04-25T07:04:33.984Z,999.00
2023-04-25T07:05:33.674Z,998.98
2023-04-25T07:06:33.636Z,998.98
2023-04-25T07:07:33.632Z,999.00
2023-04-25T07:08:33.612Z,998.99
2023-04-25T07:09:33.609Z,998.98
2023-04-25T07:10:33.593Z,999.02
2023-04-25T07:11:38.614Z,999.01
2023-04-25T07:12:33.567Z,998.99
2023-04-25T07:13:33.573Z,999.08
2023-04-25T07:14:33.551Z,999.04
2023-04-25T07:15:33.567Z,999.05
2023-04-25T07:16:33.569Z,999.03
2023-04-25T07:17:33.527Z,999.00
2023-04-25T07:18:33.509Z,999.06
2023-04-25T07:19:33.489Z,999.07
2023-04-25T07:20:33.480Z,999.03
2023-04-25T07:21:33.505Z,999.06
2023-04-25T07:22:38.485Z,999.05
2023-04-25T07:23:33.458Z,999.03
2023-04-25T07:24:33.450Z,998.95
2023-04-25T07:25:33.426Z,998.96
2023-04-25T07:26:33.426Z,998.98
2023-04-25T07:27:33.414Z,998.98
2023-04-25T07:28:33.397Z,999.06
2023-04-25T07:29:33.376Z,999.04
2023-04-25T07:30:33.371Z,999.08
2023-04-25T07:31:33.402Z,999.10
2023-04-25T07:32:33.354Z,999.10
2023-04-25T07:33:38.372Z,999.14
2023-04-25T07:34:33.319Z,999.13
2023-04-25T07:35:33.311Z,999.13
2023-04-25T07:36:33.303Z,999.17
2023-04-25T07:37:33.307Z,999.12
2023-04-25T07:38:33.290Z,999.17
2023-04-25T07:39:33.279Z,999.18
2023-04-25T07:40:33.252Z,999.16
2023-04-25T07:41:33.238Z,999.16
2023-04-25T07:42:33.227Z,999.14
2023-04-25T07:43:33.231Z,999.16
2023-04-25T07:44:38.226Z,999.17
2023-04-25T07:45:33.275Z,999.15
2023-04-25T07:46:33.269Z,999.15
2023-04-25T07:47:33.228Z,999.18
2023-04-25T07:48:33.158Z,999.17
2023-04-25T07:49:33.154Z,999.15
2023-04-25T07:50:33.138Z,999.19
2023-04-25T07:51:33.141Z,999.24
2023-04-25T07:52:33.117Z,999.29
2023-04-25T07:53:33.180Z,999.26
2023-04-25T07:54:33.103Z,999.28
2023-04-25T07:55:38.104Z,999.30
2023-04-25T07:56:45.160Z,999.25
2023-04-25T07:57:33.064Z,999.34
2023-04-25T07:58:33.062Z,999.38
2023-04-25T07:59:33.033Z,999.45
2023-04-25T08:00:33.026Z,999.47
2023-04-25T08:01:33.011Z,999.43
2023-04-25T08:02:33.074Z,999.43
2023-04-25T08:03:33.107Z,999.42
2023-04-25T08:04:33.310Z,999.43
2023-04-25T08:05:33.172Z,999.48
2023-04-25T08:06:38.100Z,999.55
2023-04-25T08:07:32.945Z,999.51
2023-04-25T08:08:32.943Z,999.48
2023-04-25T08:09:32.943Z,999.57
2023-04-25T08:10:32.908Z,999.56
2023-04-25T08:11:32.906Z,999.65
2023-04-25T08:12:32.887Z,999.60
2023-04-25T08:13:32.888Z,999.69
2023-04-25T08:14:32.863Z,999.66
2023-04-25T08:15:32.948Z,999.59
2023-04-25T08:16:32.936Z,999.61
2023-04-25T08:17:37.897Z,999.63
2023-04-25T08:18:32.832Z,999.68
2023-04-25T08:19:32.813Z,999.64
2023-04-25T08:20:32.802Z,999.65
2023-04-25T08:21:32.796Z,999.66
2023-04-25T08:22:32.776Z,999.68
2023-04-25T08:23:32.775Z,999.82
2023-04-25T08:24:32.761Z,999.84
2023-04-25T08:25:32.763Z,999.85
2023-04-25T08:26:32.736Z,999.83
2023-04-25T08:27:32.730Z,999.80
2023-04-25T08:28:37.737Z,999.89
2023-04-25T08:29:32.700Z,999.95
2023-04-25T08:30:32.692Z,999.98
2023-04-25T08:31:32.723Z,999.94
2023-04-25T08:32:32.662Z,999.93
2023-04-25T08:33:32.671Z,999.91
2023-04-25T08:34:32.646Z,999.98
2023-04-25T08:35:32.629Z,999.97
2023-04-25T08:36:39.391Z,1000.00
2023-04-25T08:37:32.614Z,1000.09
2023-04-25T08:38:32.608Z,1000.02
2023-04-25T08:39:37.627Z,1000.02
2023-04-25T08:40:32.589Z,1000.09
2023-04-25T08:41:32.623Z,1000.03
2023-04-25T08:42:32.555Z,1000.06
2023-04-25T08:43:32.551Z,1000.02
2023-04-25T08:44:32.727Z,1000.03
2023-04-25T08:45:32.525Z,1000.04
2023-04-25T08:46:32.570Z,1000.10
2023-04-25T08:47:32.505Z,1000.15
2023-04-25T08:48:32.487Z,1000.11
2023-04-25T08:49:32.477Z,1000.06
2023-04-25T08:50:37.478Z,1000.07
2023-04-25T08:51:32.453Z,1000.14
2023-04-25T08:52:32.436Z,1000.18
2023-04-25T08:53:33.890Z,1000.11
2023-04-25T08:54:34.342Z,1000.19
2023-04-25T08:55:32.407Z,1000.22
2023-04-25T08:56:32.388Z,1000.20
2023-04-25T08:57:32.398Z,1000.24
2023-04-25T08:58:32.378Z,1000.15
2023-04-25T08:59:32.365Z,1000.23
2023-04-25T09:00:32.596Z,1000.10
2023-04-25T09:01:37.490Z,1000.14
2023-04-25T09:02:32.448Z,1000.19
2023-04-25T09:03:32.424Z,1000.16
2023-04-25T09:04:32.307Z,1000.21
2023-04-25T09:05:32.292Z,1000.23
2023-04-25T09:06:32.279Z,1000.15
2023-04-25T09:07:32.260Z,1000.20
2023-04-25T09:08:32.248Z,1000.31
2023-04-25T09:09:32.304Z,1000.22
2023-04-25T09:11:32.214Z,1000.22
2023-04-25T09:12:37.305Z,1000.34
2023-04-25T09:13:32.224Z,1000.28
2023-04-25T09:14:32.188Z,1000.33
2023-04-25T09:15:32.172Z,1000.31
2023-04-25T09:16:33.653Z,1000.27
2023-04-25T09:17:32.184Z,1000.33
2023-04-25T09:18:32.138Z,1000.34
2023-04-25T09:19:40.206Z,1000.43
2023-04-25T09:20:35.236Z,1000.39
2023-04-25T09:21:32.107Z,1000.43
2023-04-25T09:22:32.089Z,1000.45
2023-04-25T09:23:37.099Z,1000.44
2023-04-25T09:24:32.080Z,1000.46
2023-04-25T09:25:32.059Z,1000.48
2023-04-25T09:26:32.042Z,1000.44
2023-04-25T09:27:32.040Z,1000.43
2023-04-25T09:28:32.043Z,1000.39
2023-04-25T09:29:32.016Z,1000.41
2023-04-25T09:30:32.013Z,1000.41
2023-04-25T09:31:32.028Z,1000.45
2023-04-25T09:32:32.033Z,1000.48
2023-04-25T09:33:31.968Z,1000.54
2023-04-25T09:34:36.987Z,1000.50
2023-04-25T09:35:31.948Z,1000.55
2023-04-25T09:36:31.926Z,1000.55
2023-04-25T09:37:31.924Z,1000.55
2023-04-25T09:38:31.916Z,1000.62
2023-04-25T09:39:31.897Z,1000.61
2023-04-25T09:40:31.900Z,1000.59
2023-04-25T09:41:31.877Z,1000.63
2023-04-25T09:42:31.859Z,1000.63
2023-04-25T09:43:31.851Z,1000.69
2023-04-25T09:44:31.966Z,1000.68
2023-04-25T09:45:36.858Z,1000.73
2023-04-25T09:46:31.853Z,1000.75
2023-04-25T09:47:31.881Z,1000.67
2023-04-25T09:48:31.809Z,1000.79
2023-04-25T09:49:31.790Z,1000.74
2023-04-25T09:50:31.835Z,1000.82
2023-04-25T09:51:31.764Z,1000.78
2023-04-25T09:52:31.753Z,1000.88
2023-04-25T09:53:31.753Z,1000.85
2023-04-25T09:54:31.733Z,1000.94
2023-04-25T09:55:31.735Z,1000.93
2023-04-25T09:56:36.720Z,1000.90
2023-04-25T09:57:31.691Z,1000.92
2023-04-25T09:58:33.220Z,1000.95
2023-04-25T09:59:31.687Z,1000.96
2023-04-25T10:00:31.714Z,1000.92
2023-04-25T10:01:31.771Z,1000.95
2023-04-25T10:02:31.711Z,1001.09
2023-04-25T10:03:31.876Z,1000.96
2023-04-25T10:04:33.865Z,1001.04
2023-04-25T10:05:31.613Z,1001.01
2023-04-25T10:06:31.602Z,1001.13
2023-04-25T10:07:36.601Z,1001.01
2023-04-25T10:08:31.564Z,1001.02
2023-04-25T10:09:31.559Z,1001.00
2023-04-25T10:10:32.305Z,1001.02
2023-04-25T10:11:31.540Z,1001.05
2023-04-25T10:12:31.522Z,1001.06
2023-04-25T10:13:31.513Z,1000.99
2023-04-25T10:14:31.497Z,1001.05
2023-04-25T10:15:31.551Z,1001.13
2023-04-25T10:16:31.709Z,1001.05
2023-04-25T10:17:31.522Z,1001.02
2023-04-25T10:18:36.473Z,1000.98
2023-04-25T10:19:31.446Z,1001.02
2023-04-25T10:20:31.434Z,1000.96
2023-04-25T10:21:31.428Z,1001.04
2023-04-25T10:22:31.410Z,1000.98
2023-04-25T10:23:31.400Z,1001.00
2023-04-25T10:24:31.383Z,1001.02
2023-04-25T10:25:31.373Z,1000.99
2023-04-25T10:26:31.416Z,1001.00
2023-04-25T10:27:31.365Z,1000.99
2023-04-25T10:28:31.336Z,1001.01
2023-04-25T10:29:36.358Z,1001.04
2023-04-25T10:30:31.314Z,1001.00
2023-04-25T10:31:31.369Z,1001.02
2023-04-25T10:32:31.400Z,1001.04
2023-04-25T10:33:31.285Z,1001.05
2023-04-25T10:34:31.269Z,1000.98
2023-04-25T10:35:31.257Z,1001.01
2023-04-25T10:36:31.244Z,1001.09
2023-04-25T10:37:31.251Z,1001.04
2023-04-25T10:38:31.246Z,1001.06
2023-04-25T10:39:31.233Z,1001.10
2023-04-25T10:40:36.222Z,1001.09
2023-04-25T10:41:31.190Z,1001.09
2023-04-25T10:42:31.211Z,1001.06
2023-04-25T10:43:31.166Z,1001.06
2023-04-25T10:44:31.186Z,1001.09
2023-04-25T10:45:31.153Z,1001.09
2023-04-25T10:46:31.163Z,1001.15
2023-04-25T10:47:31.157Z,1001.12
2023-04-25T10:48:31.129Z,1001.07
2023-04-25T10:49:31.102Z,1001.12
2023-04-25T10:50:31.092Z,1001.10
2023-04-25T10:51:47.305Z,1001.15
2023-04-25T10:52:32.085Z,1001.13
2023-04-25T10:53:31.052Z,1001.12
2023-04-25T10:54:31.042Z,1001.14
2023-04-25T10:55:31.032Z,1001.08
2023-04-25T10:56:31.033Z,1001.08
2023-04-25T10:57:31.025Z,1001.16
2023-04-25T10:58:30.996Z,1001.14
2023-04-25T10:59:30.991Z,1001.13
2023-04-25T11:00:42.974Z,1001.28
2023-04-25T11:01:30.992Z,1001.22
2023-04-25T11:02:36.085Z,1001.25
2023-04-25T11:03:31.013Z,1001.15
2023-04-25T11:04:31.480Z,1001.23
2023-04-25T11:05:30.919Z,1001.23
2023-04-25T11:06:30.918Z,1001.23
2023-04-25T11:07:30.906Z,1001.22
2023-04-25T11:08:30.883Z,1001.25
2023-04-25T11:09:30.876Z,1001.29
2023-04-25T11:10:30.868Z,1001.20
2023-04-25T11:11:30.871Z,1001.25
2023-04-25T11:12:30.853Z,1001.27
2023-04-25T11:13:35.870Z,1001.30
2023-04-25T11:14:30.815Z,1001.25
2023-04-25T11:15:30.828Z,1001.21
2023-04-25T11:16:30.814Z,1001.28
2023-04-25T11:17:30.885Z,1001.28
2023-04-25T11:18:30.823Z,1001.28
2023-04-25T11:19:30.771Z,1001.33
2023-04-25T11:20:30.878Z,1001.28
2023-04-25T11:21:30.742Z,1001.28
2023-04-25T11:22:30.732Z,1001.29
2023-04-25T11:23:30.731Z,1001.32
2023-04-25T11:24:35.865Z,1001.31
2023-04-25T11:25:30.692Z,1001.24
2023-04-25T11:26:30.683Z,1001.35
2023-04-25T11:27:30.692Z,1001.28
2023-04-25T11:28:30.661Z,1001.33
2023-04-25T11:29:30.654Z,1001.35
2023-04-25T11:30:30.659Z,1001.44
2023-04-25T11:31:30.671Z,1001.30
2023-04-25T11:32:30.664Z,1001.29
2023-04-25T11:33:30.614Z,1001.29
2023-04-25T11:34:30.594Z,1001.32
2023-04-25T11:35:35.687Z,1001.35
2023-04-25T11:36:30.595Z,1001.24
2023-04-25T11:37:30.560Z,1001.32
2023-04-25T11:38:30.558Z,1001.42
2023-04-25T11:39:30.541Z,1001.30
2023-04-25T11:40:30.532Z,1001.40
2023-04-25T11:41:30.517Z,1001.36
2023-04-25T11:42:30.503Z,1001.44
2023-04-25T11:43:30.794Z,1001.41
2023-04-25T11:44:30.533Z,1001.41
2023-04-25T11:45:30.471Z,1001.44
2023-04-25T11:46:35.676Z,1001.52
2023-04-25T11:47:30.559Z,1001.55
2023-04-25T11:48:30.449Z,1001.51
2023-04-25T11:49:30.463Z,1001.49
2023-04-25T11:50:30.413Z,1001.50
2023-04-25T11:51:30.427Z,1001.45
2023-04-25T11:52:30.460Z,1001.50
2023-04-25T11:53:30.389Z,1001.56
2023-04-25T11:54:30.414Z,1001.50
2023-04-25T11:55:30.361Z,1001.50
2023-04-25T11:56:30.373Z,1001.52
2023-04-25T11:57:35.367Z,1001.48
2023-04-25T11:58:30.398Z,1001.51
2023-04-25T11:59:30.319Z,1001.57
2023-04-25T12:00:30.298Z,1001.52
2023-04-25T12:01:31.811Z,1001.54
2023-04-25T12:02:30.382Z,1001.53
2023-04-25T12:03:30.516Z,1001.61
2023-04-25T12:04:30.485Z,1001.68
2023-04-25T12:05:32.724Z,1001.65
2023-04-25T12:06:30.277Z,1001.61
2023-04-25T12:07:30.241Z,1001.60
2023-04-25T12:08:35.250Z,1001.57
2023-04-25T12:09:30.216Z,1001.58
2023-04-25T12:10:30.261Z,1001.60
2023-04-25T12:11:30.178Z,1001.63
2023-04-25T12:12:30.164Z,1001.72
2023-04-25T12:13:30.165Z,1001.61
2023-04-25T12:14:30.139Z,1001.64
2023-04-25T12:15:30.136Z,1001.69
2023-04-25T12:16:30.227Z,1001.61
2023-04-25T12:17:30.172Z,1001.65
2023-04-25T12:18:30.108Z,1001.72
2023-04-25T12:19:35.116Z,1001.72
2023-04-25T12:20:30.082Z,1001.70
2023-04-25T12:21:30.068Z,1001.68
2023-04-25T12:22:30.151Z,1001.64